OSDI/DAM METAR and TAF weather

Enter ICAO airport designator
Station Type Date Time Source
OSDI METAR 2020/04/03 23:00 UTC NOAA

OSDI 032300Z 19008KT CAVOK 07/03 Q1019


Station Type Date Time Source
OSDI Decoded METAR 2020/04/03 23:00 UTC NOAA

Damascus Int. Airport, Syria (OSDI) 33-25N 036-31E 609M
Apr 03, 2020 - 07:00 PM EDT / 2020.04.03 2300 UTC
Wind: from the S (190 degrees) at 9 MPH (8 KT):0
Visibility: greater than 7 mile(s):0
Temperature: 44 F (7 C)
Dew Point: 37 F (3 C)
Relative Humidity: 75%
Pressure (altimeter): 30.09 in. Hg (1019 hPa)
ob: OSDI 032300Z 19008KT CAVOK 07/03 Q1019
cycle: 23

Station Type Date Time Source
OSDI TAF 2020/04/03 18:58 UTC NOAA

TAF OSDI 0318/0424 22015G30KT 8000 FEW030 SCT100

Example: see airport list